Погода Агуаина неделю

Сан-Паулу, Бразилия

19 - 25 июля
  • 19июля
    Сегодня
    +10°
    +27°
    Ясно и безоблачно
    ВремяПогодаТемператураВлажностьДавлениеВетер, м/сВероятность осадков
    00:00Ясно и безоблачно+15°C76 %710 мм1.8 м/с5 %
    03:00Ясно и безоблачно+14°C82 %710 мм1.8 м/с5 %
    06:00Ясно и безоблачно+10°C85 %709 мм1.4 м/с5 %
    09:00Ясно и безоблачно+15°C68 %712 мм0.7 м/с5 %
    12:00Ясно и безоблачно+24°C44 %713 мм1.5 м/с5 %
    15:00Ясно и безоблачно+26°C38 %712 мм1.8 м/с5 %
    18:00Ясно и безоблачно+22°C54 %711 мм2.7 м/с5 %
    21:00Ясно и безоблачно+18°C63 %711 мм2.5 м/с5 %
  • 20июля
    Суббота
    +9°
    +27°
    Ясно и безоблачно
    ВремяПогодаТемператураВлажностьДавлениеВетер, м/сВероятность осадков
    00:00Ясно и безоблачно+16°C73 %711 мм2.0 м/с5 %
    03:00Ясно и безоблачно+14°C81 %710 мм1.3 м/с5 %
    06:00Ясно и безоблачно+11°C89 %709 мм0.9 м/с5 %
    09:00Ясно и безоблачно+16°C71 %711 мм0.4 м/с5 %
    12:00Ясно и безоблачно+24°C45 %712 мм1.2 м/с5 %
    15:00Ясно и безоблачно+27°C39 %710 мм1.5 м/с5 %
    18:00Ясно и безоблачно+22°C55 %709 мм2.3 м/с5 %
    21:00Ясно и безоблачно+17°C68 %709 мм2.0 м/с5 %
  • 21июля
    Воскресенье
    +10°
    +27°
    Ясно и безоблачно
    ВремяПогодаТемператураВлажностьДавлениеВетер, м/сВероятность осадков
    00:00Ясно и безоблачно+15°C81 %709 мм1.6 м/с5 %
    03:00Ясно и безоблачно+13°C88 %708 мм1.5 м/с5 %
    06:00Ясно и безоблачно+10°C93 %708 мм0.9 м/с5 %
    09:00Ясно и безоблачно+15°C73 %711 мм0.4 м/с5 %
    12:00Ясно и безоблачно+24°C45 %711 мм0.2 м/с5 %
    15:00Ясно и безоблачно+27°C34 %709 мм0.6 м/с5 %
    18:00Ясно и безоблачно+22°C53 %709 мм2.0 м/с5 %
    21:00Ясно и безоблачно+17°C69 %709 мм1.9 м/с5 %
  • 22июля
    Понедельник
    +11°
    +27°
    Ясно и безоблачно
    ВремяПогодаТемператураВлажностьДавлениеВетер, м/сВероятность осадков
    00:00Ясно и безоблачно+15°C79 %709 мм1.8 м/с5 %
    03:00Ясно и безоблачно+13°C83 %709 мм1.4 м/с5 %
    06:00Ясно и безоблачно+11°C89 %709 мм1.4 м/с5 %
    09:00Ясно и безоблачно+16°C66 %711 мм0.0 м/с5 %
    12:00Ясно и безоблачно+25°C38 %712 мм0.9 м/с5 %
    15:00Ясно и безоблачно+27°C32 %710 мм0.6 м/с5 %
    18:00Ясно и безоблачно+22°C50 %710 мм2.3 м/с5 %
    21:00Ясно и безоблачно+18°C58 %710 мм2.2 м/с5 %
  • 23июля
    Вторник
    +12°
    +28°
    Ясно и безоблачно
    ВремяПогодаТемператураВлажностьДавлениеВетер, м/сВероятность осадков
    00:00Ясно и безоблачно+17°C71 %710 мм2.1 м/с5 %
    03:00Ясно и безоблачно+14°C80 %709 мм1.7 м/с5 %
    06:00Ясно и безоблачно+12°C82 %710 мм0.8 м/с5 %
    09:00Ясно и безоблачно+16°C67 %712 мм0.4 м/с5 %
    12:00Ясно и безоблачно+25°C46 %713 мм0.7 м/с5 %
    15:00Ясно и безоблачно+27°C40 %711 мм0.1 м/с5 %
    18:00Ясно и безоблачно+23°C56 %710 мм1.9 м/с5 %
    21:00Ясно и безоблачно+18°C71 %710 мм1.4 м/с5 %
Мы используем cookies
Соглашаюсь